CKR3 weather

Ste. Rose Du Lac Airport
Ste. Rose Du Lac, Manitoba, Canada

Public forecast

Using degrees Celsius for public forecast. Weather courtesy of forecast.io.

Closest aviation weather report (METAR) to Ste. Rose Du Lac Airport

Closest report is Dauphin Barker Airport, 21.3 nm (39.5 km) W. Retrieved 2019/10/15 20:22 UTC (37 minutes ago):

CYDN 152022Z AUTO 33009KT 9SM OVC041 03/00 A3016 RMK SLP231

Closest aviation forecast (TAF) to Ste. Rose Du Lac Airport

Closest forecast is Dauphin Barker Airport, 21.3 nm (39.5 km) W. Retrieved 2019/10/15 18:39 UTC (2 hours ago):

TAF CYDN 151738Z 1518/1606 32008KT P6SM OVC015 TEMPO 1518/1603 6SM -SHRA BR BKN008 OVC015 FM160300 30005KT P6SM BKN030 TEMPO 1603/1606 BKN015 RMK FCST BASED ON AUTO OBS NXT FCST BY 160000Z